Terminal Aerodrome Forecast
Issued by NWS

Home | Current Version | Previous Version | Text Only | Print | Product List | Glossary On
Versions: 1 2 3 4 5 6 7 8 9 10 11 12 13 14 15
916
FTAK31 PAJN 170525
TAFAWG
TAF
PAWG 170525Z 1706/1806 10011KT P6SM -RA FEW025 OVC035
     FM170900 14004KT P6SM OVC035
     FM171700 11007KT P6SM -RA OVC030
     FM180300 VRB03KT 4SM -RA BR BKN015 OVC025
      AMD LTD TO CLD VIS AND WIND 1706/1715=

USA.gov is the U.S. government's official web portal to all federal, state and local government web resources and services.